PWSweather.com
Personal Weather Stations
Station Observations
KNYSYRAC2
Fairmount Hills, Fairmount, NY 13219

Fairmount HillsFairmount, NY 13219

Lat: 43.03602, Lon: -76.247151

Elevation: 663

Station Type: Ambient Weather WS-2080

http://weather.cerchia.com

High Low Average
Temperature 84.3°F29.1°C 65.4°F18.6°C 74.2°F23.4°C
Dew Point 70.0°F21.1°C 58.4°F14.7°C 66.7°F19.3°C
Winds 8.2 mph 13.2 kmh 1.2 mph 1.9 kmh 5.0 mph SW8.0 kmh SW
Wind Gusts 12.1 mph19.5 kmh 1.6 mph2.6 kmh 7.0 mph11.3 kmh
Humidity 93% 61% 78%
Pressure 29.95 in1014.2 mb 29.83 in1010.2 mb -
Precipitation 0.38 in9.7 mm - -
Hour Temp Dew Point Humidity Winds Wind Gusts Pressure Precip Precip Rate Daily Precip Total
12:00 AM 77.4°F25.2°C 68.9°F20.5°C 75% 5.0 mph S8.0 kmh S 6.0 mph9.7 kmh 29.98 in1015.2 mb 0.00 in0.0 mm 0.00 in/hr0.0 mm/hr 0.00 in0.0 mm
12:15 AM 77.3°F25.2°C 68.8°F20.4°C 75% 4.2 mph SSW6.8 kmh SSW 6.9 mph11.1 kmh 29.98 in1015.2 mb 0.00 in0.0 mm 0.00 in/hr0.0 mm/hr 0.00 in0.0 mm
12:30 AM 77.1°F25.1°C 68.6°F20.3°C 75% 4.9 mph SSW7.9 kmh SSW 6.9 mph11.1 kmh 29.97 in1014.9 mb 0.00 in0.0 mm 0.00 in/hr0.0 mm/hr 0.00 in0.0 mm
12:45 AM 77.1°F25.1°C 69.0°F20.6°C 76% 5.0 mph S8.0 kmh S 9.8 mph15.8 kmh 29.96 in1014.6 mb 0.00 in0.0 mm 0.00 in/hr0.0 mm/hr 0.00 in0.0 mm
01:00 AM 76.7°F24.8°C 68.6°F20.3°C 76% 4.7 mph SSE7.6 kmh SSE 6.9 mph11.1 kmh 29.95 in1014.2 mb 0.00 in0.0 mm 0.00 in/hr0.0 mm/hr 0.00 in0.0 mm
01:15 AM 76.7°F24.8°C 69.0°F20.6°C 77% 3.7 mph S6.0 kmh S 6.9 mph11.1 kmh 29.95 in1014.2 mb 0.00 in0.0 mm 0.00 in/hr0.0 mm/hr 0.00 in0.0 mm
01:30 AM 76.5°F24.7°C 68.8°F20.4°C 77% 4.8 mph S7.7 kmh S 10.7 mph17.2 kmh 29.95 in1014.2 mb 0.00 in0.0 mm 0.00 in/hr0.0 mm/hr 0.00 in0.0 mm
01:45 AM 76.4°F24.7°C 69.0°F20.6°C 78% 4.5 mph S7.2 kmh S 6.9 mph11.1 kmh 29.94 in1013.9 mb 0.00 in0.0 mm 0.00 in/hr0.0 mm/hr 0.00 in0.0 mm
02:00 AM 76.4°F24.7°C 69.0°F20.6°C 78% 6.1 mph S9.8 kmh S 9.8 mph15.8 kmh 29.94 in1013.9 mb 0.00 in0.0 mm 0.00 in/hr0.0 mm/hr 0.00 in0.0 mm
02:15 AM 76.5°F24.7°C 68.8°F20.4°C 77% 5.9 mph SSE9.5 kmh SSE 7.6 mph12.2 kmh 29.93 in1013.5 mb 0.00 in0.0 mm 0.00 in/hr0.0 mm/hr 0.00 in0.0 mm
02:30 AM 76.5°F24.7°C 68.8°F20.4°C 77% 5.3 mph S8.5 kmh S 9.2 mph14.8 kmh 29.93 in1013.5 mb 0.00 in0.0 mm 0.00 in/hr0.0 mm/hr 0.00 in0.0 mm
02:45 AM 76.4°F24.7°C 69.0°F20.6°C 78% 4.2 mph SSE6.8 kmh SSE 6.9 mph11.1 kmh 29.93 in1013.5 mb 0.00 in0.0 mm 0.00 in/hr0.0 mm/hr 0.00 in0.0 mm
03:00 AM 76.4°F24.7°C 69.0°F20.6°C 78% 6.1 mph SE9.8 kmh SE 12.1 mph19.5 kmh 29.92 in1013.2 mb 0.00 in0.0 mm 0.00 in/hr0.0 mm/hr 0.00 in0.0 mm
03:15 AM 76.4°F24.7°C 69.0°F20.6°C 78% 5.7 mph S9.2 kmh S 9.2 mph14.8 kmh 29.92 in1013.2 mb 0.00 in0.0 mm 0.00 in/hr0.0 mm/hr 0.00 in0.0 mm
03:30 AM 76.4°F24.7°C 68.7°F20.4°C 77% 3.5 mph S5.6 kmh S 8.3 mph13.4 kmh 29.91 in1012.9 mb 0.00 in0.0 mm 0.00 in/hr0.0 mm/hr 0.00 in0.0 mm
03:45 AM 76.4°F24.7°C 68.7°F20.4°C 77% 5.6 mph S9.0 kmh S 6.9 mph11.1 kmh 29.91 in1012.9 mb 0.00 in0.0 mm 0.00 in/hr0.0 mm/hr 0.00 in0.0 mm
04:00 AM 76.4°F24.7°C 68.7°F20.4°C 77% 4.1 mph S6.6 kmh S 6.0 mph9.7 kmh 29.91 in1012.9 mb 0.00 in0.0 mm 0.00 in/hr0.0 mm/hr 0.00 in0.0 mm
04:15 AM 76.4°F24.7°C 68.7°F20.4°C 77% 4.0 mph S6.4 kmh S 6.0 mph9.7 kmh 29.90 in1012.5 mb 0.00 in0.0 mm 0.00 in/hr0.0 mm/hr 0.00 in0.0 mm
04:30 AM 76.4°F24.7°C 68.7°F20.4°C 77% 6.6 mph SSW10.6 kmh SSW 10.7 mph17.2 kmh 29.90 in1012.5 mb 0.00 in0.0 mm 0.00 in/hr0.0 mm/hr 0.00 in0.0 mm
04:45 AM 76.7°F24.8°C 68.6°F20.3°C 76% 4.9 mph SSE7.9 kmh SSE 6.9 mph11.1 kmh 29.90 in1012.5 mb 0.00 in0.0 mm 0.00 in/hr0.0 mm/hr 0.00 in0.0 mm
05:00 AM 76.7°F24.8°C 68.6°F20.3°C 76% 5.5 mph SSW8.9 kmh SSW 8.3 mph13.4 kmh 29.90 in1012.5 mb 0.00 in0.0 mm 0.00 in/hr0.0 mm/hr 0.00 in0.0 mm
05:15 AM 76.5°F24.7°C 68.8°F20.4°C 77% 4.5 mph SE7.2 kmh SE 6.9 mph11.1 kmh 29.90 in1012.5 mb 0.00 in0.0 mm 0.00 in/hr0.0 mm/hr 0.00 in0.0 mm
05:30 AM 76.2°F24.6°C 68.5°F20.3°C 77% 5.2 mph S8.4 kmh S 7.6 mph12.2 kmh 29.90 in1012.5 mb 0.00 in0.0 mm 0.00 in/hr0.0 mm/hr 0.00 in0.0 mm
05:45 AM 76.0°F24.4°C 68.7°F20.4°C 78% 4.2 mph S6.8 kmh S 6.0 mph9.7 kmh 29.90 in1012.5 mb 0.00 in0.0 mm 0.00 in/hr0.0 mm/hr 0.00 in0.0 mm
06:00 AM 76.0°F24.4°C 68.7°F20.4°C 78% 5.7 mph SSE9.2 kmh SSE 9.8 mph15.8 kmh 29.89 in1012.2 mb 0.00 in0.0 mm 0.00 in/hr0.0 mm/hr 0.00 in0.0 mm
06:15 AM 75.8°F24.3°C 68.9°F20.5°C 79% 4.2 mph S6.8 kmh S 8.3 mph13.4 kmh 29.89 in1012.2 mb 0.00 in0.0 mm 0.00 in/hr0.0 mm/hr 0.00 in0.0 mm
06:30 AM 75.6°F24.2°C 69.1°F20.6°C 80% 3.7 mph S6.0 kmh S 7.6 mph12.2 kmh 29.89 in1012.2 mb 0.00 in0.0 mm 0.00 in/hr0.0 mm/hr 0.00 in0.0 mm
06:45 AM 76.0°F24.4°C 69.1°F20.6°C 79% 4.7 mph S7.6 kmh S 7.6 mph12.2 kmh 29.90 in1012.5 mb 0.00 in0.0 mm 0.00 in/hr0.0 mm/hr 0.00 in0.0 mm
07:00 AM 76.4°F24.7°C 69.0°F20.6°C 78% 5.6 mph S9.0 kmh S 7.6 mph12.2 kmh 29.91 in1012.9 mb 0.00 in0.0 mm 0.00 in/hr0.0 mm/hr 0.00 in0.0 mm
07:15 AM 76.7°F24.8°C 69.0°F20.6°C 77% 5.1 mph S8.2 kmh S 6.9 mph11.1 kmh 29.90 in1012.5 mb 0.00 in0.0 mm 0.00 in/hr0.0 mm/hr 0.00 in0.0 mm
07:30 AM 77.1°F25.1°C 69.4°F20.8°C 77% 5.7 mph SSW9.2 kmh SSW 9.2 mph14.8 kmh 29.90 in1012.5 mb 0.00 in0.0 mm 0.00 in/hr0.0 mm/hr 0.00 in0.0 mm
07:45 AM 77.4°F25.2°C 69.3°F20.7°C 76% 5.5 mph SSW8.9 kmh SSW 6.9 mph11.1 kmh 29.90 in1012.5 mb 0.00 in0.0 mm 0.00 in/hr0.0 mm/hr 0.00 in0.0 mm
08:00 AM 77.6°F25.3°C 69.5°F20.8°C 76% 4.5 mph SW7.2 kmh SW 6.0 mph9.7 kmh 29.90 in1012.5 mb 0.00 in0.0 mm 0.00 in/hr0.0 mm/hr 0.00 in0.0 mm
08:15 AM 78.0°F25.6°C 69.5°F20.8°C 75% 7.1 mph SSW11.4 kmh SSW 7.6 mph12.2 kmh 29.90 in1012.5 mb 0.00 in0.0 mm 0.00 in/hr0.0 mm/hr 0.00 in0.0 mm
08:30 AM 78.2°F25.7°C 69.2°F20.7°C 74% 5.1 mph SSW8.2 kmh SSW 8.3 mph13.4 kmh 29.90 in1012.5 mb 0.00 in0.0 mm 0.00 in/hr0.0 mm/hr 0.00 in0.0 mm
08:45 AM 78.9°F26.1°C 69.5°F20.8°C 73% 6.4 mph SW10.3 kmh SW 9.2 mph14.8 kmh 29.90 in1012.5 mb 0.00 in0.0 mm 0.00 in/hr0.0 mm/hr 0.00 in0.0 mm
09:00 AM 79.6°F26.4°C 69.4°F20.8°C 71% 7.6 mph SW12.2 kmh SW 8.3 mph13.4 kmh 29.89 in1012.2 mb 0.00 in0.0 mm 0.00 in/hr0.0 mm/hr 0.00 in0.0 mm
09:15 AM 79.6°F26.4°C 69.0°F20.6°C 70% 6.7 mph SSW10.8 kmh SSW 8.3 mph13.4 kmh 29.88 in1011.9 mb 0.00 in0.0 mm 0.00 in/hr0.0 mm/hr 0.00 in0.0 mm
09:30 AM 79.8°F26.6°C 69.2°F20.7°C 70% 5.7 mph S9.2 kmh S 7.6 mph12.2 kmh 29.87 in1011.5 mb 0.00 in0.0 mm 0.00 in/hr0.0 mm/hr 0.00 in0.0 mm
09:45 AM 80.1°F26.7°C 69.5°F20.8°C 70% 7.3 mph SSW11.7 kmh SSW 9.8 mph15.8 kmh 29.87 in1011.5 mb 0.00 in0.0 mm 0.00 in/hr0.0 mm/hr 0.00 in0.0 mm
10:00 AM 80.7°F27.1°C 69.6°F20.9°C 69% 6.1 mph SW9.8 kmh SW 8.3 mph13.4 kmh 29.87 in1011.5 mb 0.00 in0.0 mm 0.00 in/hr0.0 mm/hr 0.00 in0.0 mm
10:15 AM 81.2°F27.3°C 69.7°F20.9°C 68% 6.2 mph SSW10.0 kmh SSW 8.3 mph13.4 kmh 29.88 in1011.9 mb 0.00 in0.0 mm 0.00 in/hr0.0 mm/hr 0.00 in0.0 mm
10:30 AM 81.8°F27.7°C 69.3°F20.7°C 66% 6.6 mph SW10.6 kmh SW 10.7 mph17.2 kmh 29.88 in1011.9 mb 0.00 in0.0 mm 0.00 in/hr0.0 mm/hr 0.00 in0.0 mm
10:45 AM 82.1°F27.8°C 69.7°F20.9°C 66% 5.4 mph NW8.7 kmh NW 8.3 mph13.4 kmh 29.87 in1011.5 mb 0.00 in0.0 mm 0.00 in/hr0.0 mm/hr 0.00 in0.0 mm
11:00 AM 82.3°F27.9°C 69.0°F20.6°C 64% 7.4 mph WSW11.9 kmh WSW 8.3 mph13.4 kmh 29.87 in1011.5 mb 0.00 in0.0 mm 0.00 in/hr0.0 mm/hr 0.00 in0.0 mm
11:15 AM 82.5°F28.1°C 69.1°F20.6°C 64% 6.9 mph SW11.1 kmh SW 10.7 mph17.2 kmh 29.87 in1011.5 mb 0.00 in0.0 mm 0.00 in/hr0.0 mm/hr 0.00 in0.0 mm
11:30 AM 81.8°F27.7°C 68.4°F20.2°C 64% 7.1 mph WSW11.4 kmh WSW 9.8 mph15.8 kmh 29.86 in1011.2 mb 0.00 in0.0 mm 0.00 in/hr0.0 mm/hr 0.00 in0.0 mm
11:45 AM 81.4°F27.4°C 69.0°F20.6°C 66% 5.1 mph SW8.2 kmh SW 7.6 mph12.2 kmh 29.86 in1011.2 mb 0.00 in0.0 mm 0.00 in/hr0.0 mm/hr 0.00 in0.0 mm
12:00 PM 82.7°F28.2°C 69.3°F20.7°C 64% 7.1 mph SW11.4 kmh SW 9.2 mph14.8 kmh 29.86 in1011.2 mb 0.00 in0.0 mm 0.00 in/hr0.0 mm/hr 0.00 in0.0 mm
12:15 PM 82.7°F28.2°C 69.3°F20.7°C 64% 7.4 mph SW11.9 kmh SW 9.8 mph15.8 kmh 29.86 in1011.2 mb 0.00 in0.0 mm 0.00 in/hr0.0 mm/hr 0.00 in0.0 mm
12:30 PM 82.8°F28.2°C 69.5°F20.8°C 64% 5.8 mph SSW9.3 kmh SSW 8.3 mph13.4 kmh 29.85 in1010.8 mb 0.00 in0.0 mm 0.00 in/hr0.0 mm/hr 0.00 in0.0 mm
12:45 PM 83.2°F28.4°C 69.3°F20.7°C 63% 5.4 mph SSW8.7 kmh SSW 6.0 mph9.7 kmh 29.84 in1010.5 mb 0.00 in0.0 mm 0.00 in/hr0.0 mm/hr 0.00 in0.0 mm
01:00 PM 84.3°F29.1°C 69.9°F21.1°C 62% 5.4 mph SSW8.7 kmh SSW 6.9 mph11.1 kmh 29.83 in1010.2 mb 0.00 in0.0 mm 0.00 in/hr0.0 mm/hr 0.00 in0.0 mm
01:15 PM 84.1°F28.9°C 69.3°F20.7°C 61% 7.3 mph SW11.7 kmh SW 9.8 mph15.8 kmh 29.83 in1010.2 mb 0.00 in0.0 mm 0.00 in/hr0.0 mm/hr 0.00 in0.0 mm
01:30 PM 83.6°F28.7°C 69.2°F20.7°C 62% 6.4 mph WSW10.3 kmh WSW 8.3 mph13.4 kmh 29.83 in1010.2 mb 0.00 in0.0 mm 0.00 in/hr0.0 mm/hr 0.00 in0.0 mm
01:45 PM 81.0°F27.2°C 70.0°F21.1°C 69% 6.1 mph NNW9.8 kmh NNW 7.6 mph12.2 kmh 29.84 in1010.5 mb 0.00 in0.0 mm 0.00 in/hr0.0 mm/hr 0.00 in0.0 mm
02:00 PM 77.1°F25.1°C 69.7°F20.9°C 78% 6.3 mph N10.1 kmh N 9.2 mph14.8 kmh 29.85 in1010.8 mb 0.02 in0.5 mm 0.03 in/hr0.8 mm/hr 0.02 in0.5 mm
02:15 PM 73.1°F22.8°C 68.7°F20.4°C 86% 6.7 mph WSW10.8 kmh WSW 7.6 mph12.2 kmh 29.85 in1010.8 mb 0.27 in6.9 mm 1.00 in/hr25.4 mm/hr 0.27 in6.9 mm
02:30 PM 71.9°F22.2°C 68.2°F20.1°C 88% 3.8 mph NNW6.1 kmh NNW 5.4 mph8.7 kmh 29.85 in1010.8 mb 0.34 in8.6 mm 0.28 in/hr7.1 mm/hr 0.34 in8.6 mm
02:45 PM 71.5°F21.9°C 68.4°F20.2°C 90% 5.3 mph N8.5 kmh N 10.7 mph17.2 kmh 29.86 in1011.2 mb 0.34 in8.6 mm 0.00 in/hr0.0 mm/hr 0.34 in8.6 mm
03:00 PM 72.4°F22.4°C 70.0°F21.1°C 92% 7.2 mph NNW11.6 kmh NNW 9.8 mph15.8 kmh 29.86 in1011.2 mb 0.32 in8.1 mm 0.00 in/hr0.0 mm/hr 0.34 in8.6 mm
03:15 PM 71.0°F21.7°C 67.6°F19.8°C 89% 7.8 mph SSW12.6 kmh SSW 9.8 mph15.8 kmh 29.86 in1011.2 mb 0.06 in1.5 mm 0.00 in/hr0.0 mm/hr 0.34 in8.6 mm
03:30 PM 72.0°F22.2°C 68.7°F20.4°C 89% 5.4 mph WSW8.7 kmh WSW 7.6 mph12.2 kmh 29.86 in1011.2 mb 0.00 in0.0 mm 0.00 in/hr0.0 mm/hr 0.34 in8.6 mm
03:45 PM 71.3°F21.8°C 67.3°F19.6°C 87% 6.8 mph NW10.9 kmh NW 9.2 mph14.8 kmh 29.86 in1011.2 mb 0.00 in0.0 mm 0.00 in/hr0.0 mm/hr 0.34 in8.6 mm
04:00 PM 70.1°F21.2°C 65.7°F18.7°C 86% 8.2 mph WNW13.2 kmh WNW 9.8 mph15.8 kmh 29.87 in1011.5 mb 0.00 in0.0 mm 0.00 in/hr0.0 mm/hr 0.34 in8.6 mm
04:15 PM 68.8°F20.4°C 65.1°F18.4°C 88% 6.1 mph WNW9.8 kmh WNW 9.2 mph14.8 kmh 29.88 in1011.9 mb 0.00 in0.0 mm 0.00 in/hr0.0 mm/hr 0.34 in8.6 mm
04:30 PM 68.3°F20.2°C 65.2°F18.4°C 90% 4.4 mph NW7.1 kmh NW 6.9 mph11.1 kmh 29.88 in1011.9 mb 0.02 in0.5 mm 0.08 in/hr2.0 mm/hr 0.37 in9.4 mm
04:45 PM 67.9°F19.9°C 65.2°F18.4°C 91% 3.8 mph WSW6.1 kmh WSW 6.0 mph9.7 kmh 29.88 in1011.9 mb 0.04 in1.0 mm 0.08 in/hr2.0 mm/hr 0.38 in9.7 mm
05:00 PM 68.1°F20.1°C 65.7°F18.7°C 92% 4.6 mph W7.4 kmh W 6.0 mph9.7 kmh 29.89 in1012.2 mb 0.04 in1.0 mm 0.00 in/hr0.0 mm/hr 0.38 in9.7 mm
05:15 PM 68.1°F20.1°C 65.7°F18.7°C 92% 3.8 mph WSW6.1 kmh WSW 6.0 mph9.7 kmh 29.88 in1011.9 mb 0.04 in1.0 mm 0.00 in/hr0.0 mm/hr 0.38 in9.7 mm
05:30 PM 68.1°F20.1°C 66.0°F18.9°C 93% 3.3 mph WSW5.3 kmh WSW 5.4 mph8.7 kmh 29.88 in1011.9 mb 0.01 in0.3 mm 0.00 in/hr0.0 mm/hr 0.38 in9.7 mm
05:45 PM 68.3°F20.2°C 66.2°F19.0°C 93% 3.8 mph SSW6.1 kmh SSW 4.5 mph7.2 kmh 29.89 in1012.2 mb 0.00 in0.0 mm 0.00 in/hr0.0 mm/hr 0.38 in9.7 mm
06:00 PM 68.8°F20.4°C 66.4°F19.1°C 92% 2.5 mph SW4.0 kmh SW 3.1 mph5.0 kmh 29.88 in1011.9 mb 0.00 in0.0 mm 0.00 in/hr0.0 mm/hr 0.38 in9.7 mm
06:15 PM 70.4°F21.3°C 68.3°F20.2°C 93% 4.5 mph WSW7.2 kmh WSW 6.0 mph9.7 kmh 29.88 in1011.9 mb 0.00 in0.0 mm 0.00 in/hr0.0 mm/hr 0.38 in9.7 mm
06:30 PM 70.6°F21.4°C 67.6°F19.8°C 90% 4.3 mph W6.9 kmh W 5.4 mph8.7 kmh 29.89 in1012.2 mb 0.00 in0.0 mm 0.00 in/hr0.0 mm/hr 0.38 in9.7 mm
06:45 PM 71.3°F21.8°C 67.3°F19.6°C 87% 5.3 mph WSW8.5 kmh WSW 6.0 mph9.7 kmh 29.88 in1011.9 mb 0.00 in0.0 mm 0.00 in/hr0.0 mm/hr 0.38 in9.7 mm
07:00 PM 71.1°F21.7°C 65.7°F18.7°C 83% 5.2 mph WNW8.4 kmh WNW 8.3 mph13.4 kmh 29.88 in1011.9 mb 0.00 in0.0 mm 0.00 in/hr0.0 mm/hr 0.38 in9.7 mm
07:15 PM 70.1°F21.2°C 64.3°F17.9°C 82% 6.5 mph WNW10.5 kmh WNW 8.3 mph13.4 kmh 29.89 in1012.2 mb 0.00 in0.0 mm 0.00 in/hr0.0 mm/hr 0.38 in9.7 mm
07:30 PM 69.7°F20.9°C 64.0°F17.8°C 82% 4.3 mph WSW6.9 kmh WSW 6.9 mph11.1 kmh 29.88 in1011.9 mb 0.00 in0.0 mm 0.00 in/hr0.0 mm/hr 0.38 in9.7 mm
07:45 PM 69.5°F20.8°C 63.5°F17.5°C 81% 4.4 mph WNW7.1 kmh WNW 8.3 mph13.4 kmh 29.89 in1012.2 mb 0.00 in0.0 mm 0.00 in/hr0.0 mm/hr 0.38 in9.7 mm
08:00 PM 69.2°F20.7°C 62.8°F17.1°C 80% 3.7 mph W6.0 kmh W 6.9 mph11.1 kmh 29.89 in1012.2 mb 0.00 in0.0 mm 0.00 in/hr0.0 mm/hr 0.38 in9.7 mm
08:15 PM 68.8°F20.4°C 62.4°F16.9°C 80% 4.3 mph WSW6.9 kmh WSW 6.9 mph11.1 kmh 29.91 in1012.9 mb 0.00 in0.0 mm 0.00 in/hr0.0 mm/hr 0.38 in9.7 mm
08:30 PM 68.6°F20.3°C 62.9°F17.2°C 82% 5.2 mph NW8.4 kmh NW 10.7 mph17.2 kmh 29.91 in1012.9 mb 0.00 in0.0 mm 0.00 in/hr0.0 mm/hr 0.38 in9.7 mm
08:45 PM 68.4°F20.2°C 62.8°F17.1°C 82% 5.1 mph WSW8.2 kmh WSW 6.0 mph9.7 kmh 29.91 in1012.9 mb 0.00 in0.0 mm 0.00 in/hr0.0 mm/hr 0.38 in9.7 mm
09:00 PM 68.4°F20.2°C 62.8°F17.1°C 82% 3.3 mph NNW5.3 kmh NNW 5.4 mph8.7 kmh 29.93 in1013.5 mb 0.00 in0.0 mm 0.00 in/hr0.0 mm/hr 0.38 in9.7 mm
09:15 PM 68.3°F20.2°C 62.6°F17.0°C 82% 3.4 mph N5.5 kmh N 5.4 mph8.7 kmh 29.94 in1013.9 mb 0.00 in0.0 mm 0.00 in/hr0.0 mm/hr 0.38 in9.7 mm
09:30 PM 68.3°F20.2°C 62.2°F16.8°C 81% 4.8 mph NE7.7 kmh NE 7.6 mph12.2 kmh 29.94 in1013.9 mb 0.00 in0.0 mm 0.00 in/hr0.0 mm/hr 0.38 in9.7 mm
09:45 PM 68.1°F20.1°C 61.7°F16.5°C 80% 5.1 mph N8.2 kmh N 6.9 mph11.1 kmh 29.95 in1014.2 mb 0.00 in0.0 mm 0.00 in/hr0.0 mm/hr 0.38 in9.7 mm
10:00 PM 67.9°F19.9°C 61.2°F16.2°C 79% 4.7 mph N7.6 kmh N 9.2 mph14.8 kmh 29.95 in1014.2 mb 0.00 in0.0 mm 0.00 in/hr0.0 mm/hr 0.38 in9.7 mm
10:15 PM 67.7°F19.8°C 60.6°F15.9°C 78% 3.4 mph WNW5.5 kmh WNW 4.5 mph7.2 kmh 29.95 in1014.2 mb 0.00 in0.0 mm 0.00 in/hr0.0 mm/hr 0.38 in9.7 mm
10:30 PM 67.5°F19.7°C 60.1°F15.6°C 77% 2.6 mph NNE4.2 kmh NNE 3.8 mph6.1 kmh 29.95 in1014.2 mb 0.00 in0.0 mm 0.00 in/hr0.0 mm/hr 0.38 in9.7 mm
10:45 PM 67.2°F19.6°C 59.4°F15.2°C 76% 3.1 mph N5.0 kmh N 4.5 mph7.2 kmh 29.95 in1014.2 mb 0.00 in0.0 mm 0.00 in/hr0.0 mm/hr 0.38 in9.7 mm
11:00 PM 67.0°F19.4°C 58.8°F14.9°C 75% 3.0 mph WSW4.8 kmh WSW 4.5 mph7.2 kmh 29.95 in1014.2 mb 0.00 in0.0 mm 0.00 in/hr0.0 mm/hr 0.38 in9.7 mm
11:15 PM 66.8°F19.3°C 59.0°F15.0°C 76% 2.1 mph NNE3.4 kmh NNE 3.8 mph6.1 kmh 29.95 in1014.2 mb 0.00 in0.0 mm 0.00 in/hr0.0 mm/hr 0.38 in9.7 mm
11:30 PM 66.5°F19.2°C 58.7°F14.8°C 76% 1.8 mph NW2.9 kmh NW 2.2 mph3.5 kmh 29.95 in1014.2 mb 0.00 in0.0 mm 0.00 in/hr0.0 mm/hr 0.38 in9.7 mm
11:45 PM 66.3°F19.1°C 58.9°F14.9°C 77% 1.5 mph SW2.4 kmh SW 3.1 mph5.0 kmh 29.95 in1014.2 mb 0.00 in0.0 mm 0.00 in/hr0.0 mm/hr 0.38 in9.7 mm